createdAt,value
2019-03-10T00:02:24.291Z,2.37
2019-03-10T00:04:55.174Z,2.93
2019-03-10T00:07:26.115Z,2.37
2019-03-10T00:09:57.148Z,2.73
2019-03-10T00:12:28.250Z,2.33
2019-03-10T00:14:59.366Z,2.57
2019-03-10T00:17:30.309Z,1.90
2019-03-10T00:20:01.272Z,2.03
2019-03-10T00:22:32.303Z,2.47
2019-03-10T00:25:03.478Z,2.07
2019-03-10T00:27:34.508Z,2.07
2019-03-10T00:30:14.190Z,1.97
2019-03-10T00:32:45.171Z,2.13
2019-03-10T00:35:16.225Z,2.60
2019-03-10T00:37:47.222Z,2.53
2019-03-10T00:40:40.959Z,1.90
2019-03-10T00:43:48.363Z,2.50
2019-03-10T00:46:55.583Z,1.87
2019-03-10T00:49:45.992Z,2.10
2019-03-10T00:52:20.670Z,2.80
2019-03-10T00:54:51.816Z,2.17
2019-03-10T00:57:22.876Z,2.30
2019-03-10T00:59:53.960Z,2.47
2019-03-10T01:02:24.856Z,2.30
2019-03-10T01:04:55.847Z,2.80
2019-03-10T01:07:26.981Z,2.03
2019-03-10T01:09:58.024Z,2.30
2019-03-10T01:12:29.040Z,2.17
2019-03-10T01:14:59.996Z,2.90
2019-03-10T01:17:32.425Z,2.00
2019-03-10T01:20:03.566Z,2.40
2019-03-10T01:22:35.320Z,2.10
2019-03-10T01:25:09.164Z,2.60
2019-03-10T01:27:40.204Z,2.30
2019-03-10T01:30:16.880Z,1.80
2019-03-10T01:33:10.406Z,2.30
2019-03-10T01:35:42.674Z,2.37
2019-03-10T01:38:13.884Z,1.90
2019-03-10T01:40:44.928Z,1.80
2019-03-10T01:43:16.040Z,1.70
2019-03-10T01:45:46.978Z,1.60
2019-03-10T01:48:18.084Z,2.00
2019-03-10T01:50:49.029Z,1.90
2019-03-10T01:53:25.500Z,1.87
2019-03-10T01:55:52.629Z,2.00
2019-03-10T01:58:23.614Z,2.03
2019-03-10T02:00:54.725Z,2.47
2019-03-10T02:03:25.668Z,1.90
2019-03-10T02:05:56.674Z,2.40
2019-03-10T02:08:27.690Z,2.10
2019-03-10T02:10:58.729Z,1.80
2019-03-10T02:13:29.730Z,2.20
2019-03-10T02:16:00.648Z,2.20
2019-03-10T02:18:31.648Z,1.80
2019-03-10T02:21:02.612Z,1.60
2019-03-10T02:23:33.606Z,1.80
2019-03-10T02:26:04.704Z,2.20
2019-03-10T02:28:35.838Z,2.07
2019-03-10T02:31:06.756Z,2.00
2019-03-10T02:33:37.798Z,1.70
2019-03-10T02:36:08.798Z,1.70
2019-03-10T02:38:39.821Z,1.63
2019-03-10T02:41:10.739Z,1.63
2019-03-10T02:43:41.794Z,1.60
2019-03-10T02:46:12.806Z,1.90
2019-03-10T02:48:43.695Z,1.60
2019-03-10T02:51:14.832Z,1.93
2019-03-10T02:53:45.779Z,2.00
2019-03-10T02:56:16.879Z,1.97
2019-03-10T02:58:47.770Z,1.63
2019-03-10T03:01:18.717Z,1.90
2019-03-10T03:03:49.759Z,1.80
2019-03-10T03:06:20.797Z,2.00
2019-03-10T03:08:51.845Z,1.70
2019-03-10T03:11:22.819Z,1.97
2019-03-10T03:13:53.845Z,1.70
2019-03-10T03:16:24.785Z,1.87
2019-03-10T03:18:55.742Z,1.80
2019-03-10T03:21:26.616Z,2.17
2019-03-10T03:23:57.561Z,2.00
2019-03-10T03:26:28.433Z,2.47
2019-03-10T03:28:59.412Z,1.60
2019-03-10T03:31:30.415Z,1.97
2019-03-10T03:34:01.435Z,2.30
2019-03-10T03:36:34.386Z,2.00
2019-03-10T03:39:17.691Z,1.90
2019-03-10T03:41:48.954Z,1.67
2019-03-10T03:44:20.111Z,2.20
2019-03-10T03:46:51.093Z,2.27
2019-03-10T03:49:22.264Z,2.60
2019-03-10T03:51:53.206Z,2.10
2019-03-10T03:54:24.123Z,2.03
2019-03-10T03:56:55.062Z,2.03
2019-03-10T03:59:26.047Z,2.17
2019-03-10T04:02:04.582Z,2.10
2019-03-10T04:04:35.793Z,2.13
2019-03-10T04:07:06.911Z,2.20
2019-03-10T04:09:37.864Z,1.80
2019-03-10T04:12:08.821Z,2.07
2019-03-10T04:14:39.716Z,2.00
2019-03-10T04:17:10.670Z,1.57
2019-03-10T04:19:41.938Z,1.47
2019-03-10T04:22:12.965Z,1.70
2019-03-10T04:24:43.952Z,1.90
2019-03-10T04:27:14.821Z,1.70
2019-03-10T04:29:45.761Z,1.47
2019-03-10T04:32:16.590Z,2.33
2019-03-10T04:34:47.537Z,1.50
2019-03-10T04:37:18.434Z,1.97
2019-03-10T04:39:49.444Z,1.83
2019-03-10T04:42:20.398Z,1.57
2019-03-10T04:44:51.804Z,1.63
2019-03-10T04:47:22.870Z,1.73
2019-03-10T04:49:53.812Z,1.67
2019-03-10T04:52:24.745Z,1.37
2019-03-10T04:55:03.449Z,1.77
2019-03-10T04:57:34.296Z,2.00
2019-03-10T05:00:07.682Z,1.87
2019-03-10T05:02:38.774Z,1.77
2019-03-10T05:05:09.826Z,1.50
2019-03-10T05:07:40.852Z,1.60
2019-03-10T05:10:11.898Z,1.70
2019-03-10T05:12:43.032Z,1.30
2019-03-10T05:15:14.004Z,1.63
2019-03-10T05:17:44.946Z,1.50
2019-03-10T05:20:15.844Z,1.43
2019-03-10T05:22:46.737Z,1.43
2019-03-10T05:25:23.040Z,1.37
2019-03-10T05:27:54.072Z,1.73
2019-03-10T05:30:25.007Z,1.80
2019-03-10T05:32:55.949Z,1.53
2019-03-10T05:35:27.000Z,1.40
2019-03-10T05:37:57.984Z,1.40
2019-03-10T05:40:28.993Z,1.40
2019-03-10T05:43:00.084Z,1.90
2019-03-10T05:45:31.193Z,1.80
2019-03-10T05:48:02.066Z,1.57
2019-03-10T05:50:33.133Z,1.60
2019-03-10T05:53:04.131Z,1.60
2019-03-10T05:55:35.609Z,2.00
2019-03-10T05:58:06.779Z,1.90
2019-03-10T06:00:42.591Z,1.90
2019-03-10T06:03:10.616Z,1.80
2019-03-10T06:05:41.576Z,1.80
2019-03-10T06:08:12.606Z,1.57
2019-03-10T06:10:43.735Z,2.00
2019-03-10T06:13:14.701Z,1.20
2019-03-10T06:15:45.812Z,1.47
2019-03-10T06:18:16.873Z,1.50
2019-03-10T06:20:47.912Z,1.10
2019-03-10T06:23:19.045Z,1.00
2019-03-10T06:25:50.023Z,0.90
2019-03-10T06:28:21.020Z,1.10
2019-03-10T06:30:51.971Z,1.00
2019-03-10T06:33:23.106Z,1.00
2019-03-10T06:35:54.412Z,1.00
2019-03-10T06:38:25.476Z,0.87
2019-03-10T06:40:56.579Z,0.83
2019-03-10T06:43:31.067Z,0.90
2019-03-10T06:46:02.179Z,1.07
2019-03-10T06:48:33.492Z,1.23
2019-03-10T06:51:04.791Z,1.50
2019-03-10T06:53:35.693Z,1.53
2019-03-10T06:56:06.997Z,1.67
2019-03-10T06:58:38.063Z,1.43
2019-03-10T07:01:08.164Z,1.47
2019-03-10T07:03:39.342Z,1.90
2019-03-10T07:06:10.271Z,1.70
2019-03-10T07:08:41.777Z,1.63
2019-03-10T07:11:12.656Z,1.87
2019-03-10T07:13:43.862Z,1.90
2019-03-10T07:16:14.901Z,1.80
2019-03-10T07:18:46.354Z,1.50
2019-03-10T07:21:17.395Z,1.90
2019-03-10T07:23:48.645Z,1.57
2019-03-10T07:26:19.533Z,2.07
2019-03-10T07:28:55.108Z,2.00
2019-03-10T07:31:39.889Z,1.97
2019-03-10T07:34:15.620Z,2.50
2019-03-10T07:36:54.267Z,2.03
2019-03-10T07:39:31.707Z,2.43
2019-03-10T07:42:07.303Z,3.33
2019-03-10T07:44:51.351Z,2.70
2019-03-10T07:47:39.004Z,2.27
2019-03-10T07:50:16.793Z,2.23
2019-03-10T07:52:52.835Z,2.43
2019-03-10T07:55:25.594Z,2.37
2019-03-10T07:58:10.597Z,2.80
2019-03-10T08:00:43.381Z,2.73
2019-03-10T08:03:16.334Z,2.87
2019-03-10T08:05:56.747Z,2.67
2019-03-10T08:08:29.596Z,3.00
2019-03-10T08:11:12.349Z,2.40
2019-03-10T08:13:51.044Z,2.20
2019-03-10T08:16:32.325Z,3.67
2019-03-10T08:19:14.237Z,3.20
2019-03-10T08:22:05.034Z,3.10
2019-03-10T08:24:40.789Z,3.57
2019-03-10T08:27:13.501Z,3.00
2019-03-10T08:29:46.414Z,4.03
2019-03-10T08:32:37.339Z,3.10
2019-03-10T08:35:19.287Z,3.50
2019-03-10T08:38:00.909Z,3.13
2019-03-10T08:40:42.738Z,3.17
2019-03-10T08:43:18.338Z,3.27
2019-03-10T08:46:00.637Z,3.20
2019-03-10T08:48:35.005Z,3.00
2019-03-10T08:51:10.694Z,3.20
2019-03-10T08:53:52.042Z,2.50
2019-03-10T08:56:27.635Z,2.17
2019-03-10T08:59:16.424Z,2.13
2019-03-10T09:02:08.086Z,2.57
2019-03-10T09:04:43.680Z,1.83
2019-03-10T09:07:16.658Z,1.80
2019-03-10T09:10:05.413Z,2.00
2019-03-10T09:12:50.174Z,1.47
2019-03-10T09:15:25.411Z,1.50
2019-03-10T09:18:07.040Z,1.80
2019-03-10T09:20:54.707Z,1.80
2019-03-10T09:23:36.544Z,1.60
2019-03-10T09:26:17.536Z,1.40
2019-03-10T09:28:50.464Z,0.93
2019-03-10T09:31:31.939Z,1.43
2019-03-10T09:34:04.759Z,0.97
2019-03-10T09:36:37.311Z,0.97
2019-03-10T09:39:09.513Z,0.90
2019-03-10T09:41:51.110Z,0.90
2019-03-10T09:44:25.475Z,0.80
2019-03-10T09:47:00.760Z,0.70
2019-03-10T09:49:52.784Z,1.20
2019-03-10T09:52:34.741Z,0.90
2019-03-10T09:55:23.941Z,0.50
2019-03-10T09:57:58.161Z,0.60
2019-03-10T10:00:43.478Z,0.60
2019-03-10T10:03:32.704Z,0.43
2019-03-10T10:06:06.742Z,0.50
2019-03-10T10:08:39.552Z,0.57
2019-03-10T10:11:12.300Z,0.40
2019-03-10T10:13:54.083Z,0.40
2019-03-10T10:16:29.560Z,0.20
2019-03-10T10:19:17.344Z,0.30
2019-03-10T10:21:51.764Z,0.30
2019-03-10T10:24:25.466Z,0.30
2019-03-10T10:27:05.558Z,0.80
2019-03-10T10:29:43.321Z,0.40
2019-03-10T10:32:17.349Z,0.30
2019-03-10T10:34:59.072Z,0.40
2019-03-10T10:37:45.504Z,0.40
2019-03-10T10:40:25.974Z,0.40
2019-03-10T10:42:58.716Z,0.30
2019-03-10T10:45:34.318Z,0.30
2019-03-10T10:48:08.646Z,0.37
2019-03-10T10:50:41.353Z,0.40
2019-03-10T10:53:13.960Z,0.30
2019-03-10T10:55:47.295Z,0.50
2019-03-10T10:58:25.908Z,0.30
2019-03-10T11:01:03.429Z,0.20
2019-03-10T11:03:45.585Z,0.40
2019-03-10T11:06:19.680Z,0.43
2019-03-10T11:09:02.842Z,0.40
2019-03-10T11:11:34.527Z,0.30
2019-03-10T11:14:17.006Z,0.30
2019-03-10T11:17:06.359Z,0.30
2019-03-10T11:19:41.821Z,0.40
2019-03-10T11:22:20.429Z,0.30
2019-03-10T11:24:53.583Z,0.30
2019-03-10T11:27:44.499Z,0.30
2019-03-10T11:30:17.755Z,0.20
2019-03-10T11:32:50.361Z,0.40
2019-03-10T11:35:23.188Z,0.30
2019-03-10T11:37:58.212Z,0.30
2019-03-10T11:40:31.043Z,0.20
2019-03-10T11:43:03.588Z,0.30
2019-03-10T11:45:54.884Z,0.23
2019-03-10T11:48:42.905Z,0.37
2019-03-10T11:51:15.917Z,0.30
2019-03-10T11:53:50.323Z,0.20
2019-03-10T11:56:23.151Z,0.30
2019-03-10T11:59:14.160Z,0.37
2019-03-10T12:01:46.771Z,0.20
2019-03-10T12:04:19.346Z,0.20
2019-03-10T12:07:01.397Z,0.20
2019-03-10T12:09:32.396Z,0.50
2019-03-10T12:12:03.901Z,0.33
2019-03-10T12:14:34.837Z,0.20
2019-03-10T12:17:05.028Z,0.30
2019-03-10T12:19:36.387Z,0.20
2019-03-10T12:22:07.606Z,0.30
2019-03-10T12:24:38.771Z,0.27
2019-03-10T12:27:09.671Z,0.20
2019-03-10T12:29:40.897Z,0.30
2019-03-10T12:32:11.954Z,0.30
2019-03-10T12:34:43.159Z,0.27
2019-03-10T12:37:14.177Z,0.20
2019-03-10T12:39:46.022Z,0.27
2019-03-10T12:42:16.991Z,0.30
2019-03-10T12:44:48.107Z,0.30
2019-03-10T12:47:19.101Z,0.30
2019-03-10T12:49:49.250Z,0.20
2019-03-10T12:52:21.010Z,0.30
2019-03-10T12:54:51.979Z,0.30
2019-03-10T12:57:23.092Z,0.30
2019-03-10T12:59:54.085Z,0.30
2019-03-10T13:02:25.231Z,0.20
2019-03-10T13:04:56.307Z,0.20
2019-03-10T13:07:27.431Z,0.23
2019-03-10T13:09:58.329Z,0.27
2019-03-10T13:12:29.627Z,0.20
2019-03-10T13:15:00.656Z,0.33
2019-03-10T13:17:31.902Z,0.20
2019-03-10T13:20:02.810Z,0.20
2019-03-10T13:22:32.872Z,0.20
2019-03-10T13:25:05.195Z,0.20
2019-03-10T13:27:36.181Z,0.27
2019-03-10T13:30:10.653Z,0.30
2019-03-10T13:32:44.166Z,0.30
2019-03-10T13:35:14.509Z,0.40
2019-03-10T13:37:45.579Z,0.27
2019-03-10T13:40:16.839Z,0.20
2019-03-10T13:42:47.863Z,0.20
2019-03-10T13:45:19.649Z,0.20
2019-03-10T13:47:50.700Z,0.20
2019-03-10T13:50:21.974Z,0.23
2019-03-10T13:52:53.011Z,0.40
2019-03-10T13:55:24.347Z,0.20
2019-03-10T13:57:55.404Z,0.30
2019-03-10T14:00:26.486Z,0.30
2019-03-10T14:02:57.668Z,0.30
2019-03-10T14:05:28.627Z,0.60
2019-03-10T14:07:59.863Z,0.30
2019-03-10T14:10:30.834Z,0.30
2019-03-10T14:13:02.147Z,0.50
2019-03-10T14:15:33.282Z,0.37
2019-03-10T14:18:05.909Z,0.43
2019-03-10T14:20:36.788Z,0.40
2019-03-10T14:23:07.987Z,0.50
2019-03-10T14:25:38.979Z,0.60
2019-03-10T14:28:10.275Z,0.73
2019-03-10T14:30:41.451Z,0.77
2019-03-10T14:33:11.580Z,0.70
2019-03-10T14:35:42.741Z,0.60
2019-03-10T14:38:13.767Z,0.50
2019-03-10T14:40:45.086Z,1.00
2019-03-10T14:43:16.127Z,0.60
2019-03-10T14:45:47.266Z,0.90
2019-03-10T14:48:18.449Z,0.70
2019-03-10T14:50:49.681Z,0.70
2019-03-10T14:53:20.752Z,0.73
2019-03-10T14:56:43.879Z,0.57
2019-03-10T14:59:09.561Z,0.80
2019-03-10T15:01:40.978Z,0.90
2019-03-10T15:04:11.975Z,0.63
2019-03-10T15:06:43.371Z,1.07
2019-03-10T15:09:14.289Z,0.70
2019-03-10T15:11:45.498Z,0.77
2019-03-10T15:14:16.440Z,1.00
2019-03-10T15:16:46.606Z,0.90
2019-03-10T15:19:17.836Z,1.17
2019-03-10T15:21:48.874Z,0.90
2019-03-10T15:24:20.344Z,1.43
2019-03-10T15:26:51.265Z,0.97
2019-03-10T15:29:22.428Z,0.80
2019-03-10T15:31:53.489Z,1.20
2019-03-10T15:34:24.826Z,0.80
2019-03-10T15:36:56.295Z,1.17
2019-03-10T15:39:27.735Z,0.73
2019-03-10T15:41:58.638Z,0.90
2019-03-10T15:44:29.880Z,1.07
2019-03-10T15:47:00.818Z,0.93
2019-03-10T15:49:30.844Z,1.10
2019-03-10T15:52:02.338Z,1.00
2019-03-10T15:54:33.328Z,1.23
2019-03-10T15:57:04.622Z,1.13
2019-03-10T15:59:35.799Z,1.20
2019-03-10T16:02:07.175Z,1.30
2019-03-10T16:04:38.306Z,1.40
2019-03-10T16:07:09.470Z,1.27
2019-03-10T16:09:40.571Z,1.37
2019-03-10T16:12:11.725Z,1.40
2019-03-10T16:14:42.705Z,1.33
2019-03-10T16:17:14.051Z,1.70
2019-03-10T16:19:45.113Z,1.33
2019-03-10T16:22:16.303Z,1.47
2019-03-10T16:24:47.284Z,1.27
2019-03-10T16:27:17.630Z,1.80
2019-03-10T16:29:48.831Z,2.13
2019-03-10T16:32:19.916Z,2.10
2019-03-10T16:34:51.467Z,1.70
2019-03-10T16:37:22.347Z,1.77
2019-03-10T16:39:53.516Z,1.40
2019-03-10T16:42:24.490Z,1.93
2019-03-10T16:44:55.782Z,1.67
2019-03-10T16:47:26.752Z,1.90
2019-03-10T16:49:57.970Z,2.23
2019-03-10T16:52:29.189Z,1.77
2019-03-10T16:55:00.520Z,1.57
2019-03-10T16:57:31.727Z,1.00
2019-03-10T17:00:02.155Z,1.10
2019-03-10T17:02:34.578Z,2.00
2019-03-10T17:05:08.682Z,2.80
2019-03-10T17:07:39.707Z,1.57
2019-03-10T17:10:13.867Z,1.60
2019-03-10T17:12:44.953Z,1.57
2019-03-10T17:15:18.496Z,1.73
2019-03-10T17:17:49.818Z,1.60
2019-03-10T17:20:20.911Z,1.60
2019-03-10T17:22:51.863Z,1.80
2019-03-10T17:25:22.907Z,1.43
2019-03-10T17:27:53.936Z,1.37
2019-03-10T17:30:47.080Z,1.63
2019-03-10T17:41:05.037Z,2.30
2019-03-10T17:43:36.034Z,1.57
2019-03-10T17:46:07.967Z,1.27
2019-03-10T17:48:39.273Z,2.30
2019-03-10T17:51:10.207Z,1.33
2019-03-10T17:53:42.053Z,2.20
2019-03-10T17:56:13.185Z,1.40
2019-03-10T17:58:44.714Z,1.60
2019-03-10T18:01:15.655Z,1.40
2019-03-10T18:03:46.680Z,1.47
2019-03-10T18:06:17.733Z,1.10
2019-03-10T18:08:49.225Z,1.27
2019-03-10T18:11:22.311Z,1.47
2019-03-10T18:13:53.129Z,0.80
2019-03-10T18:16:24.045Z,0.83
2019-03-10T18:18:55.311Z,0.87
2019-03-10T18:21:26.375Z,0.83
2019-03-10T18:23:57.402Z,1.00
2019-03-10T18:26:28.792Z,1.20
2019-03-10T18:28:59.762Z,1.10
2019-03-10T18:31:30.881Z,1.77
2019-03-10T18:34:01.804Z,1.03
2019-03-10T18:37:07.093Z,1.13
2019-03-10T18:39:46.892Z,1.30
2019-03-10T18:42:19.416Z,1.53
2019-03-10T18:44:50.357Z,1.40
2019-03-10T18:47:24.244Z,1.47
2019-03-10T18:49:55.653Z,1.03
2019-03-10T18:52:26.739Z,1.33
2019-03-10T18:55:00.421Z,1.63
2019-03-10T18:57:31.441Z,1.20
2019-03-10T19:00:02.418Z,1.00
2019-03-10T19:02:33.477Z,1.23
2019-03-10T19:05:05.821Z,1.30
2019-03-10T19:07:36.935Z,1.27
2019-03-10T19:10:10.474Z,1.13
2019-03-10T19:12:41.608Z,1.40
2019-03-10T19:15:20.780Z,1.20
2019-03-10T19:17:52.004Z,1.23
2019-03-10T19:20:23.058Z,1.13
2019-03-10T19:22:54.156Z,1.40
2019-03-10T19:25:25.464Z,1.20
2019-03-10T19:27:56.524Z,1.30
2019-03-10T19:30:27.503Z,0.77
2019-03-10T19:32:58.548Z,0.90
2019-03-10T19:35:29.673Z,0.87
2019-03-10T19:38:01.122Z,1.33
2019-03-10T19:40:32.306Z,1.00
2019-03-10T19:43:03.210Z,1.13
2019-03-10T19:45:34.190Z,0.70
2019-03-10T19:48:05.365Z,0.90
2019-03-10T19:50:37.116Z,1.50
2019-03-10T19:53:08.113Z,0.97
2019-03-10T19:55:39.295Z,0.97
2019-03-10T19:58:11.076Z,0.80
2019-03-10T20:00:42.036Z,0.70
2019-03-10T20:03:13.082Z,0.73
2019-03-10T20:05:44.271Z,1.00
2019-03-10T20:08:15.358Z,1.10
2019-03-10T20:10:46.381Z,0.70
2019-03-10T20:13:17.322Z,0.70
2019-03-10T20:15:48.207Z,1.00
2019-03-10T20:18:41.411Z,0.83
2019-03-10T20:21:23.023Z,0.97
2019-03-10T20:23:54.025Z,1.33
2019-03-10T20:26:25.035Z,0.60
2019-03-10T20:28:56.157Z,0.97
2019-03-10T20:31:27.155Z,0.80
2019-03-10T20:33:58.673Z,0.50
2019-03-10T20:36:29.678Z,0.40
2019-03-10T20:39:26.423Z,0.37
2019-03-10T20:42:05.020Z,0.20
2019-03-10T20:44:31.055Z,1.27
2019-03-10T20:47:02.118Z,0.20
2019-03-10T20:49:33.158Z,0.10
2019-03-10T20:52:04.133Z,0.50
2019-03-10T20:54:35.077Z,0.40
2019-03-10T20:57:06.275Z,0.20
2019-03-10T20:59:37.144Z,0.40
2019-03-10T21:02:08.217Z,0.30
2019-03-10T21:04:39.169Z,0.27
2019-03-10T21:07:10.476Z,0.57
2019-03-10T21:09:41.631Z,0.40
2019-03-10T21:12:12.823Z,0.23
2019-03-10T21:14:43.793Z,0.40
2019-03-10T21:17:14.733Z,0.30
2019-03-10T21:19:45.661Z,0.50
2019-03-10T21:22:16.758Z,0.60
2019-03-10T21:24:48.515Z,0.70
2019-03-10T21:27:19.621Z,0.50
2019-03-10T21:29:50.529Z,0.50
2019-03-10T21:32:21.654Z,0.40
2019-03-10T21:34:53.283Z,0.90
2019-03-10T21:37:24.225Z,0.50
2019-03-10T21:39:55.125Z,1.67
2019-03-10T21:42:26.350Z,0.40
2019-03-10T21:44:58.208Z,0.37
2019-03-10T21:47:30.111Z,0.57
2019-03-10T21:50:01.442Z,0.43
2019-03-10T21:52:32.635Z,0.53
2019-03-10T21:55:08.317Z,0.73
2019-03-10T21:57:39.527Z,0.30
2019-03-10T22:00:18.412Z,0.50
2019-03-10T22:02:49.508Z,0.70
2019-03-10T22:05:20.487Z,0.50
2019-03-10T22:07:51.455Z,0.70
2019-03-10T22:10:27.556Z,0.50
2019-03-10T22:12:55.255Z,0.30
2019-03-10T22:15:26.632Z,0.47
2019-03-10T22:17:57.827Z,0.43
2019-03-10T22:20:28.963Z,0.20
2019-03-10T22:22:59.924Z,0.30
2019-03-10T22:25:30.905Z,0.40
2019-03-10T22:28:01.893Z,0.30
2019-03-10T22:30:32.965Z,0.40
2019-03-10T22:33:03.823Z,0.40
2019-03-10T22:35:34.864Z,0.50
2019-03-10T22:38:06.019Z,0.40
2019-03-10T22:40:36.980Z,0.30
2019-03-10T22:43:08.093Z,0.40
2019-03-10T22:45:39.039Z,0.73
2019-03-10T22:48:10.277Z,0.50
2019-03-10T22:50:41.221Z,0.40
2019-03-10T22:53:12.168Z,0.50
2019-03-10T22:55:43.132Z,0.50
2019-03-10T22:58:14.156Z,0.50
2019-03-10T23:00:46.808Z,0.60
2019-03-10T23:03:17.883Z,0.50
2019-03-10T23:05:48.934Z,0.33
2019-03-10T23:08:19.814Z,0.77
2019-03-10T23:10:50.772Z,0.43
2019-03-10T23:13:21.700Z,0.53
2019-03-10T23:15:52.762Z,0.40
2019-03-10T23:18:23.738Z,0.50
2019-03-10T23:20:54.884Z,0.50
2019-03-10T23:23:26.971Z,0.60
2019-03-10T23:25:57.946Z,0.50
2019-03-10T23:28:28.947Z,0.53
2019-03-10T23:31:02.999Z,0.57
2019-03-10T23:33:34.037Z,0.63
2019-03-10T23:36:05.059Z,0.70
2019-03-10T23:38:36.011Z,0.60
2019-03-10T23:41:07.065Z,0.53
2019-03-10T23:43:37.996Z,0.50
2019-03-10T23:46:08.926Z,1.07
2019-03-10T23:48:39.974Z,0.43
2019-03-10T23:51:11.206Z,0.73
2019-03-10T23:53:42.260Z,0.60
2019-03-10T23:56:13.220Z,0.80
2019-03-10T23:58:44.819Z,0.63
